createdAt,value
2022-09-11T00:04:20.406Z,2.63
2022-09-11T00:14:22.047Z,2.00
2022-09-11T00:24:23.822Z,2.40
2022-09-11T00:34:25.466Z,2.47
2022-09-11T00:44:27.214Z,2.40
2022-09-11T00:54:35.474Z,2.40
2022-09-11T01:04:37.869Z,2.90
2022-09-11T01:14:52.730Z,3.40
2022-09-11T01:25:12.122Z,3.47
2022-09-11T01:35:24.703Z,3.60
2022-09-11T01:45:28.237Z,4.10
2022-09-11T01:55:36.430Z,4.20
2022-09-11T02:05:50.534Z,5.37
2022-09-11T02:16:03.572Z,4.60
2022-09-11T02:26:07.811Z,5.27
2022-09-11T02:36:12.491Z,6.00
2022-09-11T02:46:35.812Z,5.77
2022-09-11T02:56:49.284Z,6.13
2022-09-11T03:06:51.964Z,6.90
2022-09-11T03:16:53.584Z,5.57
2022-09-11T03:26:55.258Z,5.90
2022-09-11T03:36:56.868Z,5.70
2022-09-11T03:46:58.445Z,5.63
2022-09-11T03:57:00.081Z,4.77
2022-09-11T04:07:01.671Z,9.93
2022-09-11T04:17:03.346Z,4.87
2022-09-11T04:27:05.589Z,4.93
2022-09-11T04:37:07.496Z,4.57
2022-09-11T04:47:09.113Z,4.20
2022-09-11T04:57:10.743Z,6.43
2022-09-11T05:07:14.378Z,6.30
2022-09-11T05:17:15.971Z,5.70
2022-09-11T05:27:17.552Z,4.97
2022-09-11T05:37:19.233Z,4.47
2022-09-11T05:47:20.916Z,4.00
2022-09-11T05:57:22.518Z,3.90
2022-09-11T06:07:24.142Z,3.40
2022-09-11T06:17:25.772Z,4.30
2022-09-11T06:27:28.330Z,4.03
2022-09-11T06:37:30.168Z,4.17
2022-09-11T06:47:31.806Z,4.97
2022-09-11T06:57:33.507Z,5.37
2022-09-11T07:07:35.167Z,7.30
2022-09-11T07:17:37.071Z,8.80
2022-09-11T07:27:38.708Z,8.17
2022-09-11T07:37:40.329Z,8.27
2022-09-11T07:47:41.952Z,8.60
2022-09-11T07:57:46.473Z,10.50
2022-09-11T08:07:49.135Z,9.77
2022-09-11T08:17:51.726Z,9.80
2022-09-11T08:27:53.343Z,9.20
2022-09-11T08:37:55.480Z,9.80
2022-09-11T08:47:58.797Z,10.90
2022-09-11T08:58:14.496Z,11.07
2022-09-11T09:08:37.328Z,9.00
2022-09-11T09:18:50.762Z,9.27
2022-09-11T09:28:57.564Z,9.00
2022-09-11T09:38:59.690Z,8.40
2022-09-11T09:49:01.483Z,8.60
2022-09-11T09:59:11.548Z,7.73
2022-09-11T10:09:19.356Z,7.13
2022-09-11T10:19:42.279Z,6.63
2022-09-11T10:29:50.800Z,5.40
2022-09-11T10:39:53.997Z,5.10
2022-09-11T10:50:23.464Z,5.67
2022-09-11T11:00:27.085Z,5.63
2022-09-11T11:10:40.531Z,5.43
2022-09-11T11:20:59.079Z,5.23
2022-09-11T11:31:43.783Z,4.60
2022-09-11T11:42:03.850Z,5.20
2022-09-11T11:52:31.455Z,4.53
2022-09-11T12:02:53.169Z,4.00
2022-09-11T12:12:59.088Z,3.67
2022-09-11T12:23:01.218Z,3.40
2022-09-11T12:33:02.884Z,3.50
2022-09-11T12:43:35.549Z,3.10
2022-09-11T12:53:38.748Z,14.70
2022-09-11T13:03:56.742Z,9.43
2022-09-11T13:13:59.783Z,7.20
2022-09-11T13:24:01.616Z,5.70
2022-09-11T13:34:07.014Z,3.93
2022-09-11T13:44:13.261Z,3.50
2022-09-11T13:54:18.259Z,3.40
2022-09-11T14:04:21.662Z,3.80
2022-09-11T14:14:26.749Z,3.47
2022-09-11T14:24:36.283Z,3.77
2022-09-11T14:34:37.885Z,4.30
2022-09-11T14:44:41.356Z,5.03
2022-09-11T14:54:43.569Z,5.10
2022-09-11T15:04:46.776Z,8.43
2022-09-11T15:14:58.075Z,5.37
2022-09-11T15:25:00.466Z,6.40
2022-09-11T15:35:03.473Z,5.53
2022-09-11T15:45:05.638Z,5.70
2022-09-11T15:55:07.660Z,5.33
2022-09-11T16:05:09.354Z,5.77
2022-09-11T16:15:12.398Z,5.23
2022-09-11T16:25:14.153Z,5.60
2022-09-11T16:35:16.469Z,5.13
2022-09-11T16:45:19.646Z,7.40
2022-09-11T16:55:22.037Z,9.07
2022-09-11T17:05:25.134Z,6.87
2022-09-11T17:15:27.555Z,9.00
2022-09-11T17:25:29.184Z,5.90
2022-09-11T17:35:31.631Z,7.20
2022-09-11T17:45:33.225Z,6.13
2022-09-11T17:55:35.726Z,6.33
2022-09-11T18:05:41.783Z,5.80
2022-09-11T18:15:43.926Z,6.20
2022-09-11T18:25:45.585Z,6.00
2022-09-11T18:35:47.248Z,6.00
2022-09-11T18:45:49.001Z,5.33
2022-09-11T18:56:00.394Z,5.80
2022-09-11T19:06:08.911Z,5.77
2022-09-11T19:16:11.257Z,6.00
2022-09-11T19:26:19.550Z,6.43
2022-09-11T19:36:24.029Z,6.30
2022-09-11T19:46:27.406Z,6.47
2022-09-11T19:56:31.217Z,6.33
2022-09-11T20:06:34.358Z,6.30
2022-09-11T20:16:36.420Z,6.77
2022-09-11T20:26:38.090Z,7.13
2022-09-11T20:36:39.764Z,6.80
2022-09-11T20:46:43.508Z,7.07
2022-09-11T20:56:46.204Z,6.87
2022-09-11T21:06:47.841Z,6.33
2022-09-11T21:16:49.446Z,6.50
2022-09-11T21:26:51.087Z,6.77
2022-09-11T21:36:52.687Z,6.90
2022-09-11T21:46:54.524Z,6.60
2022-09-11T21:56:56.828Z,7.00
2022-09-11T22:06:58.443Z,6.97
2022-09-11T22:17:00.188Z,6.93
2022-09-11T22:27:01.836Z,7.17
2022-09-11T22:37:04.117Z,6.93
2022-09-11T22:47:05.785Z,6.80
2022-09-11T22:57:07.440Z,7.23
2022-09-11T23:07:18.329Z,7.03
2022-09-11T23:17:19.968Z,6.90
2022-09-11T23:27:21.909Z,6.60
2022-09-11T23:37:23.541Z,6.87
2022-09-11T23:47:25.143Z,6.73
2022-09-11T23:57:26.757Z,7.20
